Uvalde Research's Hourly Summary for Wednesday, May 16, 2018
Hour Temp
(f)
RH
(%)
Solar Rad.
(MJ/m2)
Rainfall
(in)
Wind
(mph)
5/16/2018 12:00 AM 71 78 0 0 4.44
5/16/2018 1:00 AM 69 82 0 0 1.37
5/16/2018 2:00 AM 68 85 0 0 0.14
5/16/2018 3:00 AM 67 86 0 0 0
5/16/2018 4:00 AM 66 88 0 0 0.41
5/16/2018 5:00 AM 66 89 0 0 0.16
5/16/2018 6:00 AM 65 91 0.01 0 0.6
5/16/2018 7:00 AM 67 89 0.27 0 2.32
5/16/2018 8:00 AM 70 83 0.55 0 3.31
5/16/2018 9:00 AM 76 74 1.46 0 2.78
5/16/2018 10:00 AM 80 63 2.11 0 1.51
5/16/2018 11:00 AM 83 57 2.59 0 2
5/16/2018 12:00 PM 86 55 2.88 0 2.04
5/16/2018 1:00 PM 88 50 2.99 0 2.24
5/16/2018 2:00 PM 90 44 2.91 0 2.1
5/16/2018 3:00 PM 92 39 2.63 0 1.7
5/16/2018 4:00 PM 93 37 2.16 0 2.29
5/16/2018 5:00 PM 93 40 1.52 0 2.92
5/16/2018 6:00 PM 91 41 0.9 0 3.94
5/16/2018 7:00 PM 90 38 0.34 0 3.17
5/16/2018 8:00 PM 86 45 0.01 0 1.18
5/16/2018 9:00 PM 82 57 0 0 0.61
5/16/2018 10:00 PM 81 61 0 0 1.52
5/16/2018 11:00 PM 78 65 0 0 1.98
Data Summary 79 64 23.33 0.00 1.86